createdAt,value
2018-06-28T00:01:37.108Z,84.30
2018-06-28T00:04:05.647Z,84.60
2018-06-28T00:09:02.539Z,85.10
2018-06-28T00:11:31.002Z,84.80
2018-06-28T00:13:59.543Z,85.10
2018-06-28T00:16:28.224Z,85.40
2018-06-28T00:18:56.696Z,85.40
2018-06-28T00:21:25.318Z,85.50
2018-06-28T00:23:53.843Z,85.50
2018-06-28T00:26:22.785Z,85.80
2018-06-28T00:28:51.350Z,86.10
2018-06-28T00:31:19.895Z,86.40
2018-06-28T00:33:48.568Z,86.30
2018-06-28T00:36:17.289Z,86.30
2018-06-28T00:38:46.012Z,86.60
2018-06-28T00:41:14.535Z,86.80
2018-06-28T00:43:43.169Z,86.60
2018-06-28T00:46:11.652Z,87.20
2018-06-28T00:48:40.304Z,87.60
2018-06-28T00:51:08.780Z,87.50
2018-06-28T00:53:37.440Z,87.90
2018-06-28T00:56:06.060Z,87.70
2018-06-28T00:58:34.658Z,88.00
2018-06-28T01:01:03.336Z,88.10
2018-06-28T01:03:32.127Z,89.40
2018-06-28T01:06:00.661Z,89.50
2018-06-28T01:08:29.355Z,89.60
2018-06-28T01:10:58.019Z,90.00
2018-06-28T01:13:27.290Z,89.50
2018-06-28T01:18:24.810Z,90.30
2018-06-28T01:20:53.405Z,90.40
2018-06-28T01:23:21.994Z,90.20
2018-06-28T01:25:51.568Z,90.30
2018-06-28T01:28:20.014Z,90.30
2018-06-28T01:33:16.831Z,90.50
2018-06-28T01:35:45.415Z,90.50
2018-06-28T01:38:13.994Z,90.80
2018-06-28T01:40:42.595Z,90.60
2018-06-28T01:43:37.648Z,90.60
2018-06-28T01:46:06.345Z,90.40
2018-06-28T01:48:35.399Z,90.60
2018-06-28T01:51:03.969Z,90.60
2018-06-28T01:53:32.471Z,90.70
2018-06-28T01:56:02.283Z,90.90
2018-06-28T01:58:31.948Z,91.00
2018-06-28T02:01:00.519Z,90.90
2018-06-28T02:03:28.956Z,90.80
2018-06-28T02:05:57.405Z,91.00
2018-06-28T02:10:54.142Z,91.00
2018-06-28T02:13:22.646Z,90.80
2018-06-28T02:18:20.063Z,90.90
2018-06-28T02:20:49.236Z,91.00
2018-06-28T02:23:17.783Z,90.90
2018-06-28T02:25:46.359Z,91.10
2018-06-28T02:28:15.071Z,91.50
2018-06-28T02:30:44.571Z,91.40
2018-06-28T02:33:15.395Z,91.30
2018-06-28T02:35:44.660Z,91.50
2018-06-28T02:38:13.384Z,91.60
2018-06-28T02:40:42.799Z,91.70
2018-06-28T02:43:11.336Z,91.40
2018-06-28T02:45:39.750Z,91.50
2018-06-28T02:48:08.471Z,91.30
2018-06-28T02:50:37.908Z,91.60
2018-06-28T02:53:06.687Z,91.40
2018-06-28T02:55:35.340Z,91.30
2018-06-28T02:58:04.072Z,91.50
2018-06-28T03:00:33.266Z,91.50
2018-06-28T03:03:01.820Z,91.60
2018-06-28T03:05:30.286Z,91.50
2018-06-28T03:07:59.293Z,91.60
2018-06-28T03:10:27.809Z,91.40
2018-06-28T03:12:56.244Z,91.70
2018-06-28T03:15:24.765Z,91.60
2018-06-28T03:17:53.411Z,91.90
2018-06-28T03:20:21.900Z,92.20
2018-06-28T03:22:51.388Z,92.00
2018-06-28T03:25:19.959Z,91.80
2018-06-28T03:27:48.496Z,91.90
2018-06-28T03:30:17.457Z,92.00
2018-06-28T03:32:46.736Z,92.00
2018-06-28T03:35:15.339Z,92.20
2018-06-28T03:37:43.939Z,92.10
2018-06-28T03:40:12.491Z,92.10
2018-06-28T03:42:41.005Z,92.10
2018-06-28T03:45:09.868Z,92.20
2018-06-28T03:47:38.710Z,92.10
2018-06-28T03:50:07.459Z,92.20
2018-06-28T03:52:36.274Z,92.40
2018-06-28T03:55:05.004Z,92.50
2018-06-28T03:57:33.466Z,92.50
2018-06-28T04:00:01.968Z,92.30
2018-06-28T04:02:30.557Z,92.30
2018-06-28T04:04:59.000Z,92.30
2018-06-28T04:07:28.307Z,92.60
2018-06-28T04:09:56.782Z,92.10
2018-06-28T04:12:25.739Z,92.20
2018-06-28T04:14:54.857Z,92.50
2018-06-28T04:17:23.423Z,92.50
2018-06-28T04:19:52.029Z,92.70
2018-06-28T04:22:26.587Z,92.50
2018-06-28T04:24:55.074Z,92.70
2018-06-28T04:27:23.994Z,92.80
2018-06-28T04:29:53.015Z,92.90
2018-06-28T04:32:21.658Z,92.90
2018-06-28T04:34:50.535Z,92.80
2018-06-28T04:37:19.444Z,92.80
2018-06-28T04:39:48.020Z,92.80
2018-06-28T04:42:16.476Z,92.60
2018-06-28T04:44:45.226Z,93.00
2018-06-28T04:47:14.614Z,92.80
2018-06-28T04:49:43.208Z,92.90
2018-06-28T04:52:11.663Z,92.80
2018-06-28T04:54:40.243Z,93.00
2018-06-28T04:57:09.083Z,92.70
2018-06-28T04:59:37.675Z,92.60
2018-06-28T05:02:06.356Z,92.60
2018-06-28T05:04:34.888Z,92.30
2018-06-28T05:07:03.454Z,92.40
2018-06-28T05:09:32.114Z,92.10
2018-06-28T05:12:00.858Z,91.90
2018-06-28T05:14:29.359Z,91.30
2018-06-28T05:16:58.123Z,90.90
2018-06-28T05:19:26.806Z,90.30
2018-06-28T05:21:55.291Z,90.40
2018-06-28T05:24:23.714Z,89.80
2018-06-28T05:26:52.976Z,89.50
2018-06-28T05:29:21.611Z,88.80
2018-06-28T05:31:50.234Z,88.30
2018-06-28T05:34:18.811Z,87.70
2018-06-28T05:36:47.244Z,86.90
2018-06-28T05:39:16.599Z,86.80
2018-06-28T05:41:45.093Z,85.00
2018-06-28T05:44:13.808Z,83.40
2018-06-28T05:46:42.263Z,81.20
2018-06-28T05:49:11.047Z,81.30
2018-06-28T05:51:39.627Z,79.10
2018-06-28T05:54:08.977Z,78.20
2018-06-28T05:56:37.519Z,77.30
2018-06-28T05:59:06.065Z,77.10
2018-06-28T06:01:34.869Z,77.00
2018-06-28T06:04:03.455Z,76.00
2018-06-28T06:06:32.096Z,76.40
2018-06-28T06:09:00.703Z,75.20
2018-06-28T06:11:29.645Z,75.30
2018-06-28T06:13:58.317Z,75.00
2018-06-28T06:16:26.955Z,74.40
2018-06-28T06:18:55.458Z,73.80
2018-06-28T06:21:24.131Z,73.90
2018-06-28T06:23:52.752Z,73.00
2018-06-28T06:26:21.243Z,72.90
2018-06-28T06:28:49.748Z,73.20
2018-06-28T06:31:18.287Z,73.00
2018-06-28T06:33:46.734Z,72.80
2018-06-28T06:36:15.979Z,72.70
2018-06-28T06:38:45.310Z,72.90
2018-06-28T06:41:14.458Z,72.50
2018-06-28T06:43:43.130Z,72.70
2018-06-28T06:46:12.249Z,72.70
2018-06-28T06:48:41.038Z,71.40
2018-06-28T06:51:09.777Z,71.60
2018-06-28T06:53:38.679Z,71.40
2018-06-28T06:56:07.369Z,71.50
2018-06-28T06:58:36.019Z,71.70
2018-06-28T07:01:05.063Z,70.40
2018-06-28T07:03:33.578Z,71.20
2018-06-28T07:06:02.163Z,71.10
2018-06-28T07:08:31.098Z,70.50
2018-06-28T07:10:59.527Z,70.40
2018-06-28T07:13:28.181Z,69.40
2018-06-28T07:15:56.860Z,69.00
2018-06-28T07:18:25.243Z,68.80
2018-06-28T07:20:53.868Z,68.70
2018-06-28T07:23:22.477Z,68.80
2018-06-28T07:25:51.111Z,67.90
2018-06-28T07:28:19.845Z,68.40
2018-06-28T07:33:21.783Z,66.90
2018-06-28T07:35:50.917Z,66.00
2018-06-28T07:38:19.623Z,65.50
2018-06-28T07:40:48.304Z,65.60
2018-06-28T07:43:16.883Z,65.80
2018-06-28T07:45:46.376Z,65.30
2018-06-28T07:48:15.615Z,64.50
2018-06-28T07:50:44.579Z,64.90
2018-06-28T07:53:13.319Z,65.10
2018-06-28T07:55:41.910Z,64.60
2018-06-28T07:58:10.532Z,63.30
2018-06-28T08:00:39.069Z,63.70
2018-06-28T08:03:07.652Z,63.00
2018-06-28T08:05:36.203Z,62.20
2018-06-28T08:08:05.647Z,62.70
2018-06-28T08:10:34.968Z,62.60
2018-06-28T08:13:03.587Z,62.30
2018-06-28T08:15:32.380Z,61.50
2018-06-28T08:18:00.879Z,61.20
2018-06-28T08:20:29.434Z,60.60
2018-06-28T08:22:57.930Z,61.30
2018-06-28T08:25:27.047Z,60.10
2018-06-28T08:27:55.611Z,61.60
2018-06-28T08:30:24.354Z,60.20
2018-06-28T08:32:53.016Z,60.00
2018-06-28T08:35:21.600Z,60.10
2018-06-28T08:37:50.310Z,59.90
2018-06-28T08:40:19.055Z,58.90
2018-06-28T08:42:47.655Z,58.60
2018-06-28T08:45:16.268Z,59.80
2018-06-28T08:47:44.940Z,59.40
2018-06-28T08:50:13.664Z,59.60
2018-06-28T08:52:42.377Z,59.40
2018-06-28T08:55:11.000Z,58.40
2018-06-28T08:57:39.709Z,57.40
2018-06-28T09:00:09.190Z,57.10
2018-06-28T09:05:06.277Z,57.60
2018-06-28T09:07:35.362Z,57.90
2018-06-28T09:10:03.925Z,58.50
2018-06-28T09:12:33.074Z,57.40
2018-06-28T09:15:01.798Z,57.20
2018-06-28T09:17:30.403Z,55.50
2018-06-28T09:19:59.005Z,55.50
2018-06-28T09:22:28.611Z,54.40
2018-06-28T09:24:57.774Z,55.40
2018-06-28T09:27:26.623Z,57.00
2018-06-28T09:29:55.314Z,57.30
2018-06-28T09:32:23.966Z,56.40
2018-06-28T09:34:53.801Z,56.40
2018-06-28T09:37:22.620Z,56.80
2018-06-28T09:39:51.240Z,56.00
2018-06-28T09:42:19.934Z,54.20
2018-06-28T09:44:48.665Z,55.00
2018-06-28T09:47:17.925Z,54.60
2018-06-28T09:49:46.757Z,52.70
2018-06-28T09:52:15.367Z,53.30
2018-06-28T09:54:44.079Z,52.90
2018-06-28T09:57:13.271Z,52.80
2018-06-28T09:59:42.053Z,53.30
2018-06-28T10:02:10.836Z,53.30
2018-06-28T10:04:39.667Z,54.10
2018-06-28T10:07:08.699Z,53.50
2018-06-28T10:09:37.224Z,53.80
2018-06-28T10:12:05.740Z,54.10
2018-06-28T10:14:34.307Z,53.40
2018-06-28T10:17:02.909Z,53.40
2018-06-28T10:19:31.410Z,54.80
2018-06-28T10:22:00.090Z,55.20
2018-06-28T10:24:28.944Z,53.90
2018-06-28T10:26:57.520Z,51.90
2018-06-28T10:29:26.403Z,51.80
2018-06-28T10:31:55.111Z,54.10
2018-06-28T10:34:23.759Z,53.10
2018-06-28T10:36:52.520Z,53.20
2018-06-28T10:39:21.228Z,52.60
2018-06-28T10:41:50.005Z,51.00
2018-06-28T10:44:19.148Z,50.20
2018-06-28T10:46:47.675Z,51.20
2018-06-28T10:49:16.297Z,50.30
2018-06-28T10:51:45.775Z,49.90
2018-06-28T10:54:14.393Z,49.80
2018-06-28T10:56:42.979Z,49.30
2018-06-28T10:59:11.527Z,49.30
2018-06-28T11:01:40.245Z,49.90
2018-06-28T11:04:08.743Z,50.40
2018-06-28T11:06:37.340Z,50.70
2018-06-28T11:09:08.994Z,50.80
2018-06-28T11:11:38.055Z,51.90
2018-06-28T11:14:06.807Z,50.70
2018-06-28T11:16:35.526Z,51.70
2018-06-28T11:19:04.314Z,51.40
2018-06-28T11:21:33.295Z,52.40
2018-06-28T11:24:01.803Z,52.90
2018-06-28T11:28:58.716Z,56.10
2018-06-28T11:31:27.471Z,55.80
2018-06-28T11:33:56.122Z,58.20
2018-06-28T11:36:24.756Z,61.80
2018-06-28T11:38:53.398Z,61.90
2018-06-28T11:41:22.204Z,63.20
2018-06-28T11:43:50.802Z,63.70
2018-06-28T11:46:19.645Z,64.50
2018-06-28T11:48:48.219Z,66.40
2018-06-28T11:53:45.257Z,72.40
2018-06-28T11:56:13.840Z,75.40
2018-06-28T11:58:42.315Z,78.30
2018-06-28T12:01:11.084Z,81.20
2018-06-28T12:03:39.714Z,82.70
2018-06-28T12:06:08.361Z,83.20
2018-06-28T12:08:36.911Z,83.50
2018-06-28T12:11:05.660Z,85.00
2018-06-28T12:13:34.274Z,84.70
2018-06-28T12:16:03.103Z,84.00
2018-06-28T12:18:31.715Z,84.40
2018-06-28T12:21:00.262Z,85.70
2018-06-28T12:23:29.066Z,84.80
2018-06-28T12:25:57.676Z,85.50
2018-06-28T12:28:26.342Z,85.90
2018-06-28T12:30:54.967Z,86.50
2018-06-28T12:33:23.519Z,85.10
2018-06-28T12:35:57.558Z,84.30
2018-06-28T12:38:26.819Z,83.00
2018-06-28T12:40:55.600Z,82.80
2018-06-28T12:43:26.194Z,82.20
2018-06-28T12:45:54.807Z,82.10
2018-06-28T12:48:23.683Z,81.60
2018-06-28T12:50:52.421Z,80.50
2018-06-28T12:53:21.760Z,79.80
2018-06-28T12:56:53.780Z,79.90
2018-06-28T12:59:23.257Z,79.20
2018-06-28T13:01:51.831Z,79.00
2018-06-28T13:04:20.472Z,77.50
2018-06-28T13:06:49.849Z,78.30
2018-06-28T13:09:18.601Z,80.30
2018-06-28T13:11:47.251Z,79.10
2018-06-28T13:14:15.832Z,80.30
2018-06-28T13:16:44.527Z,80.00
2018-06-28T13:19:13.260Z,79.70
2018-06-28T13:21:41.701Z,80.50
2018-06-28T13:24:10.335Z,79.10
2018-06-28T13:26:39.159Z,77.60
2018-06-28T13:29:07.780Z,76.00
2018-06-28T13:31:36.775Z,76.00
2018-06-28T13:34:05.376Z,74.40
2018-06-28T13:36:34.122Z,74.80
2018-06-28T13:39:02.816Z,74.00
2018-06-28T13:41:32.461Z,74.40
2018-06-28T13:44:00.585Z,73.30
2018-06-28T13:46:29.584Z,73.10
2018-06-28T13:48:58.347Z,73.40
2018-06-28T13:51:26.924Z,73.10
2018-06-28T13:53:55.495Z,73.30
2018-06-28T13:56:24.011Z,73.40
2018-06-28T13:58:52.815Z,71.50
2018-06-28T14:01:21.454Z,70.50
2018-06-28T14:03:49.930Z,70.10
2018-06-28T14:06:19.352Z,69.90
2018-06-28T14:08:47.962Z,70.10
2018-06-28T14:11:16.572Z,71.20
2018-06-28T14:13:45.184Z,73.60
2018-06-28T14:16:13.717Z,73.00
2018-06-28T14:18:44.239Z,74.10
2018-06-28T14:21:12.985Z,76.60
2018-06-28T14:23:41.562Z,76.70
2018-06-28T14:26:10.094Z,76.50
2018-06-28T14:28:38.619Z,75.50
2018-06-28T14:31:07.241Z,76.60
2018-06-28T14:33:35.868Z,76.70
2018-06-28T14:36:04.611Z,77.50
2018-06-28T14:38:33.231Z,78.70
2018-06-28T14:41:02.849Z,77.70
2018-06-28T14:43:31.458Z,77.40
2018-06-28T14:46:00.919Z,78.30
2018-06-28T14:48:29.552Z,75.50
2018-06-28T14:50:58.400Z,76.70
2018-06-28T14:53:27.353Z,74.90
2018-06-28T14:55:56.056Z,74.80
2018-06-28T14:58:25.332Z,74.10
2018-06-28T15:00:53.908Z,73.70
2018-06-28T15:03:22.911Z,73.80
2018-06-28T15:05:51.696Z,74.90
2018-06-28T15:08:21.188Z,74.90
2018-06-28T15:10:50.368Z,72.40
2018-06-28T15:13:19.668Z,72.70
2018-06-28T15:15:48.368Z,75.10
2018-06-28T15:20:45.852Z,76.50
2018-06-28T15:23:14.477Z,77.80
2018-06-28T15:25:43.856Z,76.60
2018-06-28T15:28:12.619Z,77.20
2018-06-28T15:30:41.201Z,76.30
2018-06-28T15:33:09.783Z,77.30
2018-06-28T15:35:38.528Z,79.20
2018-06-28T15:38:07.591Z,81.30
2018-06-28T15:43:05.296Z,83.90
2018-06-28T15:45:34.032Z,83.50
2018-06-28T15:48:02.741Z,85.10
2018-06-28T15:50:32.084Z,87.10
2018-06-28T15:53:00.944Z,86.50
2018-06-28T15:55:29.425Z,86.20
2018-06-28T15:57:58.665Z,86.50
2018-06-28T16:00:27.338Z,86.80
2018-06-28T16:02:55.866Z,87.70
2018-06-28T16:05:24.427Z,88.20
2018-06-28T16:07:53.223Z,88.00
2018-06-28T16:10:21.799Z,87.50
2018-06-28T16:12:51.259Z,87.70
2018-06-28T16:15:20.053Z,88.00
2018-06-28T16:17:48.699Z,87.30
2018-06-28T16:20:17.394Z,88.30
2018-06-28T16:22:45.967Z,89.20
2018-06-28T16:25:15.491Z,88.30
2018-06-28T16:27:44.124Z,88.90
2018-06-28T16:30:12.828Z,89.30
2018-06-28T16:32:41.617Z,89.30
2018-06-28T16:35:10.228Z,87.00
2018-06-28T16:37:39.030Z,88.20
2018-06-28T16:40:07.714Z,87.80
2018-06-28T16:42:36.428Z,88.80
2018-06-28T16:45:05.074Z,89.00
2018-06-28T16:47:33.712Z,89.10
2018-06-28T16:50:02.299Z,89.30
2018-06-28T16:52:31.036Z,89.90
2018-06-28T16:54:59.630Z,90.30
2018-06-28T16:57:28.690Z,90.50
2018-06-28T16:59:57.281Z,90.40
2018-06-28T17:02:25.814Z,90.90
2018-06-28T17:04:54.788Z,91.20
2018-06-28T17:09:52.155Z,91.40
2018-06-28T17:12:20.924Z,91.40
2018-06-28T17:14:49.625Z,91.30
2018-06-28T17:17:18.418Z,91.20
2018-06-28T17:19:47.452Z,90.30
2018-06-28T17:22:16.177Z,90.00
2018-06-28T17:24:45.916Z,87.90
2018-06-28T17:27:14.795Z,88.70
2018-06-28T17:29:43.465Z,90.00
2018-06-28T17:32:12.185Z,90.20
2018-06-28T17:34:40.852Z,90.10
2018-06-28T17:37:09.418Z,90.90
2018-06-28T17:39:38.406Z,91.20
2018-06-28T17:42:07.427Z,92.00
2018-06-28T17:44:36.142Z,91.90
2018-06-28T17:47:04.720Z,91.90
2018-06-28T17:49:33.747Z,91.80
2018-06-28T17:52:02.711Z,91.60
2018-06-28T17:54:31.463Z,91.00
2018-06-28T17:57:00.132Z,90.40
2018-06-28T17:59:29.150Z,90.10
2018-06-28T18:01:57.881Z,89.60
2018-06-28T18:04:26.489Z,89.70
2018-06-28T18:06:56.004Z,90.30
2018-06-28T18:11:53.489Z,91.90
2018-06-28T18:14:22.103Z,92.20
2018-06-28T18:16:50.852Z,92.00
2018-06-28T18:19:19.506Z,91.80
2018-06-28T18:21:48.090Z,91.90
2018-06-28T18:24:17.430Z,92.50
2018-06-28T18:26:46.659Z,92.60
2018-06-28T18:29:15.536Z,92.20
2018-06-28T18:31:44.541Z,92.50
2018-06-28T18:34:13.177Z,92.10
2018-06-28T18:36:42.172Z,91.60
2018-06-28T18:39:11.091Z,91.90
2018-06-28T18:41:40.386Z,91.80
2018-06-28T18:44:09.414Z,92.10
2018-06-28T18:46:38.310Z,92.50
2018-06-28T18:49:07.300Z,92.60
2018-06-28T18:51:36.001Z,93.10
2018-06-28T18:54:05.158Z,93.20
2018-06-28T18:56:34.214Z,92.90
2018-06-28T18:59:02.821Z,93.40
2018-06-28T19:01:32.009Z,93.40
2018-06-28T19:04:01.065Z,93.70
2018-06-28T19:06:30.753Z,94.00
2018-06-28T19:08:59.668Z,94.00
2018-06-28T19:11:28.889Z,94.50
2018-06-28T19:14:02.940Z,94.10
2018-06-28T19:16:36.975Z,94.50
2018-06-28T19:19:06.157Z,94.70
2018-06-28T19:21:40.467Z,95.00
2018-06-28T19:24:09.360Z,95.00
2018-06-28T19:26:38.384Z,95.10
2018-06-28T19:29:13.203Z,95.00
2018-06-28T19:31:47.177Z,95.10
2018-06-28T19:34:15.731Z,95.30
2018-06-28T19:36:44.850Z,95.40
2018-06-28T19:39:18.929Z,95.00
2018-06-28T19:41:52.878Z,94.90
2018-06-28T19:44:21.500Z,94.70
2018-06-28T19:46:50.359Z,95.10
2018-06-28T19:49:24.394Z,95.50
2018-06-28T19:51:58.300Z,95.30
2018-06-28T19:54:26.910Z,95.20
2018-06-28T19:56:55.695Z,95.30
2018-06-28T19:59:24.372Z,95.00
2018-06-28T20:04:32.421Z,95.00
2018-06-28T20:07:01.464Z,94.20
2018-06-28T20:09:30.639Z,94.60
2018-06-28T20:12:00.163Z,94.40
2018-06-28T20:14:34.311Z,94.50
2018-06-28T20:17:08.092Z,93.90
2018-06-28T20:19:42.336Z,94.00
2018-06-28T20:22:11.244Z,94.30
2018-06-28T20:24:39.900Z,93.90
2018-06-28T20:27:13.876Z,93.90
2018-06-28T20:29:47.738Z,94.30
2018-06-28T20:32:21.750Z,94.30
2018-06-28T20:34:50.384Z,94.00
2018-06-28T20:37:19.125Z,94.40
2018-06-28T20:39:47.715Z,94.80
2018-06-28T20:42:16.827Z,95.00
2018-06-28T20:44:46.245Z,94.40
2018-06-28T20:47:15.025Z,94.70
2018-06-28T20:49:44.632Z,93.70
2018-06-28T20:52:13.263Z,94.30
2018-06-28T20:54:42.196Z,94.90
2018-06-28T20:57:11.177Z,94.80
2018-06-28T20:59:39.965Z,95.30
2018-06-28T21:02:08.597Z,95.00
2018-06-28T21:04:37.454Z,95.00
2018-06-28T21:07:06.216Z,95.70
2018-06-28T21:09:35.172Z,95.80
2018-06-28T21:12:03.971Z,95.70
2018-06-28T21:14:32.533Z,95.50
2018-06-28T21:17:01.185Z,95.80
2018-06-28T21:19:29.883Z,95.80
2018-06-28T21:21:58.550Z,95.50
2018-06-28T21:24:27.406Z,95.30
2018-06-28T21:26:56.081Z,95.40
2018-06-28T21:29:25.417Z,95.50
2018-06-28T21:31:53.993Z,95.70
2018-06-28T21:34:22.579Z,95.90
2018-06-28T21:36:51.281Z,95.70
2018-06-28T21:39:20.203Z,95.80
2018-06-28T21:41:48.752Z,95.50
2018-06-28T21:44:17.311Z,95.50
2018-06-28T21:46:46.026Z,94.30
2018-06-28T21:49:14.671Z,93.80
2018-06-28T21:51:43.476Z,93.10
2018-06-28T21:54:12.759Z,92.70
2018-06-28T21:56:41.331Z,92.60
2018-06-28T21:59:10.029Z,92.70
2018-06-28T22:01:44.562Z,92.90
2018-06-28T22:04:13.331Z,93.10
2018-06-28T22:06:41.936Z,93.40
2018-06-28T22:09:10.821Z,93.80
2018-06-28T22:11:39.447Z,93.90
2018-06-28T22:14:08.403Z,94.20
2018-06-28T22:16:36.879Z,94.50
2018-06-28T22:19:05.563Z,94.10
2018-06-28T22:21:34.931Z,94.20
2018-06-28T22:24:03.513Z,94.20
2018-06-28T22:26:32.151Z,93.80
2018-06-28T22:29:00.698Z,94.20
2018-06-28T22:31:29.200Z,94.60
2018-06-28T22:33:57.869Z,94.70
2018-06-28T22:36:26.380Z,94.70
2018-06-28T22:38:54.975Z,94.40
2018-06-28T22:41:23.494Z,94.40
2018-06-28T22:43:52.291Z,94.60
2018-06-28T22:46:21.043Z,94.50
2018-06-28T22:48:49.648Z,94.40
2018-06-28T22:51:18.196Z,94.80
2018-06-28T22:53:46.687Z,95.00
2018-06-28T22:56:16.536Z,95.10
2018-06-28T22:58:45.227Z,94.30
2018-06-28T23:01:13.907Z,94.50
2018-06-28T23:03:42.637Z,94.60
2018-06-28T23:06:11.932Z,94.40
2018-06-28T23:08:40.512Z,94.60
2018-06-28T23:11:09.025Z,94.60
2018-06-28T23:13:37.817Z,94.80
2018-06-28T23:16:07.308Z,94.60
2018-06-28T23:18:36.102Z,94.70
2018-06-28T23:21:04.998Z,94.50
2018-06-28T23:23:33.772Z,95.00
2018-06-28T23:26:03.158Z,95.30
2018-06-28T23:28:31.608Z,95.40
2018-06-28T23:31:00.211Z,95.20
2018-06-28T23:33:29.008Z,95.60
2018-06-28T23:35:57.598Z,95.50
2018-06-28T23:38:26.301Z,95.60
2018-06-28T23:40:55.173Z,95.40
2018-06-28T23:43:23.771Z,95.80
2018-06-28T23:45:52.315Z,95.60
2018-06-28T23:48:20.952Z,95.60
2018-06-28T23:50:49.383Z,96.00
2018-06-28T23:53:18.068Z,96.00
2018-06-28T23:55:46.674Z,95.50
2018-06-28T23:58:15.235Z,95.60
